sensor_id;sensor_type;location;lat;lon;timestamp;P1;durP1;ratioP1;P2;durP2;ratioP2
16039;SDS011;8124;48.634;8.120;2022-10-13T00:02:27;46.85;;;40.67;;
16039;SDS011;8124;48.634;8.120;2022-10-13T00:07:30;50.33;;;39.67;;
16039;SDS011;8124;48.634;8.120;2022-10-13T00:12:33;45.38;;;39.80;;
16039;SDS011;8124;48.634;8.120;2022-10-13T00:17:41;44.95;;;39.08;;
16039;SDS011;8124;48.634;8.120;2022-10-13T00:22:44;48.15;;;39.90;;
16039;SDS011;8124;48.634;8.120;2022-10-13T00:27:47;45.50;;;39.58;;
16039;SDS011;8124;48.634;8.120;2022-10-13T00:32:51;48.50;;;40.90;;
16039;SDS011;8124;48.634;8.120;2022-10-13T00:37:54;49.33;;;40.20;;
16039;SDS011;8124;48.634;8.120;2022-10-13T00:43:01;46.75;;;39.70;;
16039;SDS011;8124;48.634;8.120;2022-10-13T00:48:05;48.13;;;40.60;;
16039;SDS011;8124;48.634;8.120;2022-10-13T00:53:08;45.97;;;39.78;;
16039;SDS011;8124;48.634;8.120;2022-10-13T00:58:14;45.25;;;39.58;;
16039;SDS011;8124;48.634;8.120;2022-10-13T01:03:21;50.20;;;39.83;;
16039;SDS011;8124;48.634;8.120;2022-10-13T01:08:27;44.20;;;38.58;;
16039;SDS011;8124;48.634;8.120;2022-10-13T01:13:33;56.58;;;44.50;;
16039;SDS011;8124;48.634;8.120;2022-10-13T01:18:43;53.88;;;43.53;;
16039;SDS011;8124;48.634;8.120;2022-10-13T01:23:57;47.92;;;41.58;;
16039;SDS011;8124;48.634;8.120;2022-10-13T01:29:28;47.75;;;40.42;;
16039;SDS011;8124;48.634;8.120;2022-10-13T01:34:50;44.95;;;39.13;;
16039;SDS011;8124;48.634;8.120;2022-10-13T01:40:01;47.25;;;40.55;;
16039;SDS011;8124;48.634;8.120;2022-10-13T01:45:09;46.80;;;39.90;;
16039;SDS011;8124;48.634;8.120;2022-10-13T01:50:16;48.40;;;39.88;;
16039;SDS011;8124;48.634;8.120;2022-10-13T01:55:21;44.78;;;39.45;;
16039;SDS011;8124;48.634;8.120;2022-10-13T02:00:25;42.90;;;38.20;;
16039;SDS011;8124;48.634;8.120;2022-10-13T02:05:31;49.47;;;40.05;;
16039;SDS011;8124;48.634;8.120;2022-10-13T02:10:42;52.47;;;45.20;;
16039;SDS011;8124;48.634;8.120;2022-10-13T02:15:53;49.80;;;41.33;;
16039;SDS011;8124;48.634;8.120;2022-10-13T02:20:59;46.15;;;40.97;;
16039;SDS011;8124;48.634;8.120;2022-10-13T02:26:02;43.45;;;38.67;;
16039;SDS011;8124;48.634;8.120;2022-10-13T02:31:08;53.10;;;41.35;;
16039;SDS011;8124;48.634;8.120;2022-10-13T02:36:11;45.78;;;40.65;;
16039;SDS011;8124;48.634;8.120;2022-10-13T02:41:14;46.20;;;40.83;;
16039;SDS011;8124;48.634;8.120;2022-10-13T02:46:18;50.08;;;41.83;;
16039;SDS011;8124;48.634;8.120;2022-10-13T02:51:22;47.22;;;40.33;;
16039;SDS011;8124;48.634;8.120;2022-10-13T02:56:25;50.75;;;40.80;;
16039;SDS011;8124;48.634;8.120;2022-10-13T03:01:29;47.65;;;39.72;;
16039;SDS011;8124;48.634;8.120;2022-10-13T03:06:33;46.90;;;40.38;;
16039;SDS011;8124;48.634;8.120;2022-10-13T03:11:36;50.85;;;40.75;;
16039;SDS011;8124;48.634;8.120;2022-10-13T03:16:40;47.70;;;39.15;;
16039;SDS011;8124;48.634;8.120;2022-10-13T03:21:45;45.47;;;39.05;;
16039;SDS011;8124;48.634;8.120;2022-10-13T03:26:48;42.58;;;37.97;;
16039;SDS011;8124;48.634;8.120;2022-10-13T03:31:54;41.63;;;37.08;;
16039;SDS011;8124;48.634;8.120;2022-10-13T03:36:57;46.85;;;39.55;;
16039;SDS011;8124;48.634;8.120;2022-10-13T03:42:05;44.17;;;38.63;;
16039;SDS011;8124;48.634;8.120;2022-10-13T03:47:10;43.15;;;38.45;;
16039;SDS011;8124;48.634;8.120;2022-10-13T03:52:13;44.42;;;38.85;;
16039;SDS011;8124;48.634;8.120;2022-10-13T03:57:16;47.80;;;39.40;;
16039;SDS011;8124;48.634;8.120;2022-10-13T04:02:20;46.75;;;40.08;;
16039;SDS011;8124;48.634;8.120;2022-10-13T04:07:25;53.33;;;41.13;;
16039;SDS011;8124;48.634;8.120;2022-10-13T04:12:28;48.05;;;39.63;;
16039;SDS011;8124;48.634;8.120;2022-10-13T04:17:32;47.83;;;39.78;;
16039;SDS011;8124;48.634;8.120;2022-10-13T04:22:35;44.85;;;39.33;;
16039;SDS011;8124;48.634;8.120;2022-10-13T04:27:38;48.38;;;41.10;;
16039;SDS011;8124;48.634;8.120;2022-10-13T04:32:43;45.13;;;40.00;;
16039;SDS011;8124;48.634;8.120;2022-10-13T04:37:46;52.70;;;45.30;;
16039;SDS011;8124;48.634;8.120;2022-10-13T04:42:49;54.35;;;43.15;;
16039;SDS011;8124;48.634;8.120;2022-10-13T04:47:54;52.05;;;41.80;;
16039;SDS011;8124;48.634;8.120;2022-10-13T04:52:57;50.95;;;43.88;;
16039;SDS011;8124;48.634;8.120;2022-10-13T04:58:00;50.13;;;41.22;;
16039;SDS011;8124;48.634;8.120;2022-10-13T05:03:04;47.75;;;42.10;;
16039;SDS011;8124;48.634;8.120;2022-10-13T05:08:08;54.13;;;43.65;;
16039;SDS011;8124;48.634;8.120;2022-10-13T05:13:11;52.13;;;42.80;;
16039;SDS011;8124;48.634;8.120;2022-10-13T05:18:15;50.75;;;42.35;;
16039;SDS011;8124;48.634;8.120;2022-10-13T05:23:18;48.83;;;42.00;;
16039;SDS011;8124;48.634;8.120;2022-10-13T05:28:21;50.13;;;42.40;;
16039;SDS011;8124;48.634;8.120;2022-10-13T05:33:26;49.83;;;40.05;;
16039;SDS011;8124;48.634;8.120;2022-10-13T05:38:29;50.50;;;41.92;;
16039;SDS011;8124;48.634;8.120;2022-10-13T05:43:32;48.20;;;42.30;;
16039;SDS011;8124;48.634;8.120;2022-10-13T05:48:37;50.92;;;43.08;;
16039;SDS011;8124;48.634;8.120;2022-10-13T05:53:41;57.22;;;47.47;;
16039;SDS011;8124;48.634;8.120;2022-10-13T05:58:53;47.45;;;41.28;;
16039;SDS011;8124;48.634;8.120;2022-10-13T06:04:02;51.42;;;43.63;;
16039;SDS011;8124;48.634;8.120;2022-10-13T06:09:09;50.95;;;41.75;;
16039;SDS011;8124;48.634;8.120;2022-10-13T06:14:13;53.05;;;41.63;;
16039;SDS011;8124;48.634;8.120;2022-10-13T06:19:17;53.58;;;41.22;;
16039;SDS011;8124;48.634;8.120;2022-10-13T06:24:20;46.78;;;40.05;;
16039;SDS011;8124;48.634;8.120;2022-10-13T06:29:24;49.55;;;41.28;;
16039;SDS011;8124;48.634;8.120;2022-10-13T06:34:28;48.58;;;40.15;;
16039;SDS011;8124;48.634;8.120;2022-10-13T06:39:31;48.83;;;42.10;;
16039;SDS011;8124;48.634;8.120;2022-10-13T06:44:37;53.72;;;41.55;;
16039;SDS011;8124;48.634;8.120;2022-10-13T06:49:41;50.15;;;41.85;;
16039;SDS011;8124;48.634;8.120;2022-10-13T06:54:46;54.92;;;43.13;;
16039;SDS011;8124;48.634;8.120;2022-10-13T06:59:49;50.72;;;43.28;;
16039;SDS011;8124;48.634;8.120;2022-10-13T07:04:54;51.88;;;42.33;;
16039;SDS011;8124;48.634;8.120;2022-10-13T07:09:57;52.47;;;43.00;;
16039;SDS011;8124;48.634;8.120;2022-10-13T07:15:00;50.17;;;42.03;;
16039;SDS011;8124;48.634;8.120;2022-10-13T07:20:05;44.92;;;39.78;;
16039;SDS011;8124;48.634;8.120;2022-10-13T07:25:09;47.78;;;41.08;;
16039;SDS011;8124;48.634;8.120;2022-10-13T07:30:12;53.78;;;42.50;;
16039;SDS011;8124;48.634;8.120;2022-10-13T07:35:16;48.67;;;41.75;;
16039;SDS011;8124;48.634;8.120;2022-10-13T07:40:20;51.20;;;42.60;;
16039;SDS011;8124;48.634;8.120;2022-10-13T07:45:23;51.55;;;43.50;;
16039;SDS011;8124;48.634;8.120;2022-10-13T07:50:28;51.53;;;41.03;;
16039;SDS011;8124;48.634;8.120;2022-10-13T07:55:31;52.63;;;42.75;;
16039;SDS011;8124;48.634;8.120;2022-10-13T08:00:34;55.25;;;42.40;;
16039;SDS011;8124;48.634;8.120;2022-10-13T08:05:38;50.08;;;42.40;;
16039;SDS011;8124;48.634;8.120;2022-10-13T08:10:41;49.72;;;41.58;;
16039;SDS011;8124;48.634;8.120;2022-10-13T08:15:44;49.95;;;42.25;;
16039;SDS011;8124;48.634;8.120;2022-10-13T08:20:49;53.05;;;43.30;;
16039;SDS011;8124;48.634;8.120;2022-10-13T08:25:59;48.40;;;42.13;;
16039;SDS011;8124;48.634;8.120;2022-10-13T08:31:02;56.60;;;43.10;;
16039;SDS011;8124;48.634;8.120;2022-10-13T08:36:07;51.90;;;42.10;;
16039;SDS011;8124;48.634;8.120;2022-10-13T08:41:12;48.88;;;42.08;;
16039;SDS011;8124;48.634;8.120;2022-10-13T08:46:20;51.90;;;42.53;;
16039;SDS011;8124;48.634;8.120;2022-10-13T08:51:29;51.97;;;43.08;;
16039;SDS011;8124;48.634;8.120;2022-10-13T08:56:33;53.63;;;43.92;;
16039;SDS011;8124;48.634;8.120;2022-10-13T09:01:36;53.92;;;43.03;;
16039;SDS011;8124;48.634;8.120;2022-10-13T09:06:41;52.78;;;42.85;;
16039;SDS011;8124;48.634;8.120;2022-10-13T09:11:48;52.78;;;42.25;;
16039;SDS011;8124;48.634;8.120;2022-10-13T09:16:52;48.88;;;41.45;;
16039;SDS011;8124;48.634;8.120;2022-10-13T09:22:13;49.80;;;41.97;;
16039;SDS011;8124;48.634;8.120;2022-10-13T09:27:21;51.30;;;42.17;;
16039;SDS011;8124;48.634;8.120;2022-10-13T09:32:24;50.28;;;42.97;;
16039;SDS011;8124;48.634;8.120;2022-10-13T09:37:29;57.58;;;42.58;;
16039;SDS011;8124;48.634;8.120;2022-10-13T09:42:33;50.92;;;42.97;;
16039;SDS011;8124;48.634;8.120;2022-10-13T09:47:37;49.97;;;42.25;;
16039;SDS011;8124;48.634;8.120;2022-10-13T09:52:42;53.67;;;42.33;;
16039;SDS011;8124;48.634;8.120;2022-10-13T09:57:47;52.33;;;42.60;;
16039;SDS011;8124;48.634;8.120;2022-10-13T10:02:53;48.33;;;42.25;;
16039;SDS011;8124;48.634;8.120;2022-10-13T10:08:01;54.15;;;42.40;;
16039;SDS011;8124;48.634;8.120;2022-10-13T10:13:12;48.45;;;41.40;;
16039;SDS011;8124;48.634;8.120;2022-10-13T10:18:17;49.63;;;43.13;;
16039;SDS011;8124;48.634;8.120;2022-10-13T10:23:27;49.67;;;43.63;;
16039;SDS011;8124;48.634;8.120;2022-10-13T10:28:47;50.38;;;43.85;;
16039;SDS011;8124;48.634;8.120;2022-10-13T10:34:15;50.25;;;43.90;;
16039;SDS011;8124;48.634;8.120;2022-10-13T10:39:37;53.63;;;45.55;;
16039;SDS011;8124;48.634;8.120;2022-10-13T10:44:45;60.33;;;44.83;;
16039;SDS011;8124;48.634;8.120;2022-10-13T10:49:51;58.88;;;45.88;;
16039;SDS011;8124;48.634;8.120;2022-10-13T10:55:01;51.47;;;43.58;;
16039;SDS011;8124;48.634;8.120;2022-10-13T11:00:16;59.15;;;44.42;;
16039;SDS011;8124;48.634;8.120;2022-10-13T11:05:22;51.83;;;43.92;;
16039;SDS011;8124;48.634;8.120;2022-10-13T11:10:27;51.58;;;44.22;;
16039;SDS011;8124;48.634;8.120;2022-10-13T11:15:39;58.50;;;43.75;;
16039;SDS011;8124;48.634;8.120;2022-10-13T11:20:53;52.22;;;44.38;;
16039;SDS011;8124;48.634;8.120;2022-10-13T11:31:47;48.65;;;42.50;;
16039;SDS011;8124;48.634;8.120;2022-10-13T11:36:59;54.20;;;43.08;;
16039;SDS011;8124;48.634;8.120;2022-10-13T11:42:04;50.00;;;42.95;;
16039;SDS011;8124;48.634;8.120;2022-10-13T11:47:27;50.75;;;42.30;;
16039;SDS011;8124;48.634;8.120;2022-10-13T11:52:56;49.38;;;42.97;;
16039;SDS011;8124;48.634;8.120;2022-10-13T11:58:08;53.97;;;41.72;;
16039;SDS011;8124;48.634;8.120;2022-10-13T12:03:21;47.83;;;41.17;;
16039;SDS011;8124;48.634;8.120;2022-10-13T12:08:27;48.17;;;40.80;;
16039;SDS011;8124;48.634;8.120;2022-10-13T12:13:34;50.38;;;41.35;;
16039;SDS011;8124;48.634;8.120;2022-10-13T12:18:39;48.63;;;41.35;;
16039;SDS011;8124;48.634;8.120;2022-10-13T12:23:45;49.78;;;41.05;;
16039;SDS011;8124;48.634;8.120;2022-10-13T12:28:52;51.20;;;41.05;;
16039;SDS011;8124;48.634;8.120;2022-10-13T12:34:01;45.42;;;40.40;;
16039;SDS011;8124;48.634;8.120;2022-10-13T12:39:04;50.95;;;41.50;;
16039;SDS011;8124;48.634;8.120;2022-10-13T12:44:12;49.58;;;41.10;;
16039;SDS011;8124;48.634;8.120;2022-10-13T12:49:21;45.67;;;40.75;;
16039;SDS011;8124;48.634;8.120;2022-10-13T12:54:26;48.72;;;40.63;;
16039;SDS011;8124;48.634;8.120;2022-10-13T12:59:31;50.60;;;41.70;;
16039;SDS011;8124;48.634;8.120;2022-10-13T13:04:40;46.58;;;40.40;;
16039;SDS011;8124;48.634;8.120;2022-10-13T13:09:57;45.40;;;39.25;;
16039;SDS011;8124;48.634;8.120;2022-10-13T13:15:29;45.88;;;38.67;;
16039;SDS011;8124;48.634;8.120;2022-10-13T13:20:38;45.40;;;39.13;;
16039;SDS011;8124;48.634;8.120;2022-10-13T13:25:40;48.42;;;39.05;;
16039;SDS011;8124;48.634;8.120;2022-10-13T13:30:43;47.35;;;39.63;;
16039;SDS011;8124;48.634;8.120;2022-10-13T13:35:48;47.28;;;40.80;;
16039;SDS011;8124;48.634;8.120;2022-10-13T13:40:51;48.55;;;40.38;;
16039;SDS011;8124;48.634;8.120;2022-10-13T13:45:54;48.13;;;40.05;;
16039;SDS011;8124;48.634;8.120;2022-10-13T13:50:58;48.08;;;40.03;;
16039;SDS011;8124;48.634;8.120;2022-10-13T13:56:02;50.03;;;41.08;;
16039;SDS011;8124;48.634;8.120;2022-10-13T14:01:05;48.92;;;40.40;;
16039;SDS011;8124;48.634;8.120;2022-10-13T14:06:13;44.90;;;39.85;;
16039;SDS011;8124;48.634;8.120;2022-10-13T14:11:19;45.85;;;40.08;;
16039;SDS011;8124;48.634;8.120;2022-10-13T14:16:22;48.88;;;40.05;;
16039;SDS011;8124;48.634;8.120;2022-10-13T14:21:27;45.65;;;40.30;;
16039;SDS011;8124;48.634;8.120;2022-10-13T14:26:30;45.88;;;39.83;;
16039;SDS011;8124;48.634;8.120;2022-10-13T14:31:33;48.58;;;40.83;;
16039;SDS011;8124;48.634;8.120;2022-10-13T14:36:44;50.05;;;40.85;;
16039;SDS011;8124;48.634;8.120;2022-10-13T14:41:47;46.65;;;41.35;;
16039;SDS011;8124;48.634;8.120;2022-10-13T14:46:49;47.13;;;40.50;;
16039;SDS011;8124;48.634;8.120;2022-10-13T14:51:54;48.75;;;40.38;;
16039;SDS011;8124;48.634;8.120;2022-10-13T14:56:59;48.83;;;40.47;;
16039;SDS011;8124;48.634;8.120;2022-10-13T15:02:05;45.50;;;39.75;;
16039;SDS011;8124;48.634;8.120;2022-10-13T15:07:09;48.47;;;39.65;;
16039;SDS011;8124;48.634;8.120;2022-10-13T15:12:12;44.20;;;39.38;;
16039;SDS011;8124;48.634;8.120;2022-10-13T15:17:15;44.13;;;39.42;;
16039;SDS011;8124;48.634;8.120;2022-10-13T15:22:20;48.28;;;39.88;;
16039;SDS011;8124;48.634;8.120;2022-10-13T15:27:23;45.25;;;39.10;;
16039;SDS011;8124;48.634;8.120;2022-10-13T15:32:26;46.42;;;39.63;;
16039;SDS011;8124;48.634;8.120;2022-10-13T15:37:35;55.90;;;42.75;;
16039;SDS011;8124;48.634;8.120;2022-10-13T15:42:38;54.10;;;42.92;;
16039;SDS011;8124;48.634;8.120;2022-10-13T15:47:41;46.25;;;40.58;;
16039;SDS011;8124;48.634;8.120;2022-10-13T15:52:45;43.95;;;39.22;;
16039;SDS011;8124;48.634;8.120;2022-10-13T15:57:48;44.53;;;38.58;;
16039;SDS011;8124;48.634;8.120;2022-10-13T16:02:52;42.47;;;37.92;;
16039;SDS011;8124;48.634;8.120;2022-10-13T16:07:57;42.88;;;38.17;;
16039;SDS011;8124;48.634;8.120;2022-10-13T16:13:00;43.83;;;39.03;;
16039;SDS011;8124;48.634;8.120;2022-10-13T16:18:03;43.60;;;38.75;;
16039;SDS011;8124;48.634;8.120;2022-10-13T16:23:08;43.70;;;38.22;;
16039;SDS011;8124;48.634;8.120;2022-10-13T16:28:11;49.65;;;39.25;;
16039;SDS011;8124;48.634;8.120;2022-10-13T16:33:15;44.63;;;38.92;;
16039;SDS011;8124;48.634;8.120;2022-10-13T16:38:19;47.60;;;39.65;;
16039;SDS011;8124;48.634;8.120;2022-10-13T16:43:22;43.63;;;38.83;;
16039;SDS011;8124;48.634;8.120;2022-10-13T16:48:27;43.45;;;38.63;;
16039;SDS011;8124;48.634;8.120;2022-10-13T16:53:33;45.45;;;38.40;;
16039;SDS011;8124;48.634;8.120;2022-10-13T16:58:36;44.22;;;37.97;;
16039;SDS011;8124;48.634;8.120;2022-10-13T17:03:44;42.60;;;37.92;;
16039;SDS011;8124;48.634;8.120;2022-10-13T17:08:49;42.42;;;37.83;;
16039;SDS011;8124;48.634;8.120;2022-10-13T17:13:52;42.03;;;37.50;;
16039;SDS011;8124;48.634;8.120;2022-10-13T17:18:57;50.10;;;38.17;;
16039;SDS011;8124;48.634;8.120;2022-10-13T17:24:14;42.47;;;37.88;;
16039;SDS011;8124;48.634;8.120;2022-10-13T17:29:17;41.85;;;37.35;;
16039;SDS011;8124;48.634;8.120;2022-10-13T17:34:20;45.97;;;40.57;;
16039;SDS011;8124;48.634;8.120;2022-10-13T17:39:26;43.00;;;38.35;;
16039;SDS011;8124;48.634;8.120;2022-10-13T17:44:32;42.05;;;37.47;;
16039;SDS011;8124;48.634;8.120;2022-10-13T17:49:35;44.63;;;38.13;;
16039;SDS011;8124;48.634;8.120;2022-10-13T17:54:39;42.60;;;37.60;;
16039;SDS011;8124;48.634;8.120;2022-10-13T17:59:49;43.10;;;37.40;;
16039;SDS011;8124;48.634;8.120;2022-10-13T18:04:53;42.67;;;38.08;;
16039;SDS011;8124;48.634;8.120;2022-10-13T18:09:58;42.47;;;37.50;;
16039;SDS011;8124;48.634;8.120;2022-10-13T18:15:01;43.40;;;37.95;;
16039;SDS011;8124;48.634;8.120;2022-10-13T18:20:04;42.10;;;37.30;;
16039;SDS011;8124;48.634;8.120;2022-10-13T18:25:10;42.08;;;37.33;;
16039;SDS011;8124;48.634;8.120;2022-10-13T18:30:17;42.65;;;37.78;;
16039;SDS011;8124;48.634;8.120;2022-10-13T18:35:22;45.67;;;38.05;;
16039;SDS011;8124;48.634;8.120;2022-10-13T18:40:34;42.47;;;37.85;;
16039;SDS011;8124;48.634;8.120;2022-10-13T18:45:37;42.28;;;37.67;;
16039;SDS011;8124;48.634;8.120;2022-10-13T18:56:00;46.25;;;38.80;;
16039;SDS011;8124;48.634;8.120;2022-10-13T19:01:05;45.85;;;38.10;;
16039;SDS011;8124;48.634;8.120;2022-10-13T19:06:10;47.10;;;38.25;;
16039;SDS011;8124;48.634;8.120;2022-10-13T19:11:19;44.58;;;38.42;;
16039;SDS011;8124;48.634;8.120;2022-10-13T19:16:23;49.72;;;38.72;;
16039;SDS011;8124;48.634;8.120;2022-10-13T19:21:28;41.97;;;37.47;;
16039;SDS011;8124;48.634;8.120;2022-10-13T19:26:34;50.92;;;38.60;;
16039;SDS011;8124;48.634;8.120;2022-10-13T19:31:38;43.03;;;38.33;;
16039;SDS011;8124;48.634;8.120;2022-10-13T19:36:43;45.80;;;38.45;;
16039;SDS011;8124;48.634;8.120;2022-10-13T19:41:49;43.25;;;37.72;;
16039;SDS011;8124;48.634;8.120;2022-10-13T19:46:54;48.50;;;38.42;;
16039;SDS011;8124;48.634;8.120;2022-10-13T19:51:57;43.80;;;39.08;;
16039;SDS011;8124;48.634;8.120;2022-10-13T19:57:02;41.80;;;37.40;;
16039;SDS011;8124;48.634;8.120;2022-10-13T20:02:08;42.30;;;37.70;;
16039;SDS011;8124;48.634;8.120;2022-10-13T20:07:15;49.55;;;38.53;;
16039;SDS011;8124;48.634;8.120;2022-10-13T20:12:21;43.67;;;37.58;;
16039;SDS011;8124;48.634;8.120;2022-10-13T20:17:24;43.22;;;38.53;;
16039;SDS011;8124;48.634;8.120;2022-10-13T20:22:27;42.67;;;37.90;;
16039;SDS011;8124;48.634;8.120;2022-10-13T20:27:31;43.58;;;37.72;;
16039;SDS011;8124;48.634;8.120;2022-10-13T20:32:34;43.47;;;38.22;;
16039;SDS011;8124;48.634;8.120;2022-10-13T20:37:37;42.47;;;37.75;;
16039;SDS011;8124;48.634;8.120;2022-10-13T20:48:03;47.50;;;38.38;;
16039;SDS011;8124;48.634;8.120;2022-10-13T20:53:07;42.60;;;37.45;;
16039;SDS011;8124;48.634;8.120;2022-10-13T20:58:11;43.95;;;38.70;;
16039;SDS011;8124;48.634;8.120;2022-10-13T21:03:14;42.92;;;38.30;;
16039;SDS011;8124;48.634;8.120;2022-10-13T21:08:19;42.70;;;37.85;;
16039;SDS011;8124;48.634;8.120;2022-10-13T21:13:24;43.03;;;37.10;;
16039;SDS011;8124;48.634;8.120;2022-10-13T21:18:27;42.53;;;37.35;;
16039;SDS011;8124;48.634;8.120;2022-10-13T21:23:30;45.33;;;37.53;;
16039;SDS011;8124;48.634;8.120;2022-10-13T21:28:36;42.05;;;37.55;;
16039;SDS011;8124;48.634;8.120;2022-10-13T21:33:40;42.95;;;37.63;;
16039;SDS011;8124;48.634;8.120;2022-10-13T21:38:44;42.05;;;37.40;;
16039;SDS011;8124;48.634;8.120;2022-10-13T21:43:49;41.33;;;36.83;;
16039;SDS011;8124;48.634;8.120;2022-10-13T21:48:54;44.53;;;37.22;;
16039;SDS011;8124;48.634;8.120;2022-10-13T21:53:58;41.72;;;36.63;;
16039;SDS011;8124;48.634;8.120;2022-10-13T21:59:04;41.85;;;37.05;;
16039;SDS011;8124;48.634;8.120;2022-10-13T22:04:08;40.83;;;36.50;;
16039;SDS011;8124;48.634;8.120;2022-10-13T22:09:14;41.90;;;37.00;;
16039;SDS011;8124;48.634;8.120;2022-10-13T22:14:18;42.15;;;37.03;;
16039;SDS011;8124;48.634;8.120;2022-10-13T22:19:21;44.17;;;36.63;;
16039;SDS011;8124;48.634;8.120;2022-10-13T22:24:24;40.95;;;36.55;;
16039;SDS011;8124;48.634;8.120;2022-10-13T22:29:29;41.92;;;37.35;;
16039;SDS011;8124;48.634;8.120;2022-10-13T22:34:32;40.95;;;36.55;;
16039;SDS011;8124;48.634;8.120;2022-10-13T22:39:35;41.45;;;36.53;;
16039;SDS011;8124;48.634;8.120;2022-10-13T22:44:45;40.38;;;36.08;;
16039;SDS011;8124;48.634;8.120;2022-10-13T22:49:48;40.92;;;36.50;;
16039;SDS011;8124;48.634;8.120;2022-10-13T22:54:52;41.53;;;37.03;;
16039;SDS011;8124;48.634;8.120;2022-10-13T22:59:56;43.13;;;36.60;;
16039;SDS011;8124;48.634;8.120;2022-10-13T23:04:59;41.10;;;36.65;;
16039;SDS011;8124;48.634;8.120;2022-10-13T23:10:02;41.42;;;36.35;;
16039;SDS011;8124;48.634;8.120;2022-10-13T23:15:08;41.10;;;36.63;;
16039;SDS011;8124;48.634;8.120;2022-10-13T23:20:12;43.33;;;36.45;;
16039;SDS011;8124;48.634;8.120;2022-10-13T23:25:15;40.75;;;36.40;;
16039;SDS011;8124;48.634;8.120;2022-10-13T23:30:19;40.30;;;36.00;;
16039;SDS011;8124;48.634;8.120;2022-10-13T23:35:22;41.30;;;36.33;;
16039;SDS011;8124;48.634;8.120;2022-10-13T23:40:25;41.42;;;36.97;;
16039;SDS011;8124;48.634;8.120;2022-10-13T23:45:30;41.75;;;36.55;;
16039;SDS011;8124;48.634;8.120;2022-10-13T23:50:32;41.60;;;36.08;;
16039;SDS011;8124;48.634;8.120;2022-10-13T23:55:37;40.45;;;36.15;;
